Time,TemperatureF,DewpointF,PressureIn,WindDirection,WindDirectionDegrees,WindSpeedMPH,WindSpeedGustMPH,Humidity,HourlyPrecipIn,Conditions,Clouds,dailyrainin,SoftwareType,DateUTC
2013-05-14 00:01:00,35.0,28.3,30.16,WNW,290,0.0,0.0,76,-99.99,,,-99.99,VWS V14.01,2013-05-14 04:01:00,
2013-05-14 00:06:00,34.9,28.3,30.16,WNW,290,0.0,0.0,77,-99.99,,,-99.99,VWS V14.01,2013-05-14 04:06:00,
2013-05-14 00:11:00,34.8,28.0,30.16,WNW,290,0.0,0.0,76,-99.99,,,-99.99,VWS V14.01,2013-05-14 04:11:00,
2013-05-14 00:16:00,34.6,28.0,30.16,WNW,290,0.0,0.0,77,-99.99,,,-99.99,VWS V14.01,2013-05-14 04:16:00,
2013-05-14 00:21:00,34.2,27.8,30.16,WNW,290,0.0,0.0,77,-99.99,,,-99.99,VWS V14.01,2013-05-14 04:21:00,
2013-05-14 00:26:00,34.0,27.8,30.16,WNW,290,0.0,0.0,78,-99.99,,,-99.99,VWS V14.01,2013-05-14 04:26:00,
2013-05-14 00:31:00,33.7,27.7,30.16,WNW,290,0.0,0.0,78,-99.99,,,-99.99,VWS V14.01,2013-05-14 04:31:00,
2013-05-14 00:36:00,33.5,27.8,30.17,WNW,290,0.0,0.0,79,-99.99,,,-99.99,VWS V14.01,2013-05-14 04:36:00,
2013-05-14 00:41:00,33.2,27.7,30.17,WNW,290,0.0,0.0,80,-99.99,,,-99.99,VWS V14.01,2013-05-14 04:41:00,
2013-05-14 00:46:00,33.1,27.8,30.17,WNW,290,0.0,0.0,81,-99.99,,,-99.99,VWS V14.01,2013-05-14 04:46:00,
2013-05-14 00:51:00,32.9,27.7,30.17,WNW,290,0.0,0.0,81,-99.99,,,-99.99,VWS V14.01,2013-05-14 04:51:00,
2013-05-14 00:56:00,32.7,27.6,30.17,WNW,290,0.0,0.0,81,-99.99,,,-99.99,VWS V14.01,2013-05-14 04:56:00,
2013-05-14 01:01:00,32.6,27.7,30.17,WNW,290,0.0,0.0,82,-99.99,,,-99.99,VWS V14.01,2013-05-14 05:01:00,
2013-05-14 01:06:00,32.5,27.7,30.17,WNW,290,0.0,0.0,82,-99.99,,,-99.99,VWS V14.01,2013-05-14 05:06:00,
2013-05-14 01:11:00,32.1,27.6,30.17,WNW,290,0.0,0.0,83,-99.99,,,-99.99,VWS V14.01,2013-05-14 05:11:00,
2013-05-14 01:15:00,32.0,27.6,30.17,WNW,290,0.0,0.0,84,-99.99,,,-99.99,VWS V14.01,2013-05-14 05:15:00,
2013-05-14 01:20:00,31.8,27.6,30.18,WNW,290,0.0,0.0,84,-99.99,,,-99.99,VWS V14.01,2013-05-14 05:20:00,
2013-05-14 01:25:00,31.8,27.7,30.18,WNW,290,0.0,0.0,84,-99.99,,,-99.99,VWS V14.01,2013-05-14 05:25:00,
2013-05-14 01:30:00,31.7,27.7,30.18,WNW,290,0.0,0.0,85,-99.99,,,-99.99,VWS V14.01,2013-05-14 05:30:00,
2013-05-14 01:35:00,31.4,27.7,30.18,WNW,290,0.0,0.0,86,-99.99,,,-99.99,VWS V14.01,2013-05-14 05:35:00,
2013-05-14 01:40:00,31.3,27.8,30.18,WNW,290,0.0,0.0,86,-99.99,,,-99.99,VWS V14.01,2013-05-14 05:40:00,
2013-05-14 01:45:00,31.1,27.6,30.18,WNW,290,0.0,0.0,87,-99.99,,,-99.99,VWS V14.01,2013-05-14 05:45:00,
2013-05-14 01:50:00,31.2,27.8,30.18,WNW,290,0.0,0.0,87,-99.99,,,-99.99,VWS V14.01,2013-05-14 05:50:00,
2013-05-14 01:55:00,31.2,27.8,30.18,WNW,290,0.0,0.0,87,-99.99,,,-99.99,VWS V14.01,2013-05-14 05:55:00,
2013-05-14 02:00:00,31.2,27.8,30.18,WNW,290,0.0,0.0,87,-99.99,,,-99.99,VWS V14.01,2013-05-14 06:00:00,
2013-05-14 02:05:00,31.2,27.9,30.18,WNW,290,0.0,0.0,87,-99.99,,,-99.99,VWS V14.01,2013-05-14 06:05:00,
2013-05-14 02:10:00,31.0,27.7,30.18,WNW,290,0.0,0.0,87,-99.99,,,-99.99,VWS V14.01,2013-05-14 06:10:00,
2013-05-14 02:15:00,30.9,27.7,30.18,WNW,290,0.0,0.0,88,-99.99,,,-99.99,VWS V14.01,2013-05-14 06:15:00,
2013-05-14 02:20:00,30.8,27.7,30.18,WNW,290,0.0,0.0,88,-99.99,,,-99.99,VWS V14.01,2013-05-14 06:20:00,
2013-05-14 02:25:00,30.7,27.7,30.18,WNW,290,0.0,0.0,88,-99.99,,,-99.99,VWS V14.01,2013-05-14 06:25:00,
2013-05-14 02:30:00,30.4,27.5,30.18,WNW,290,0.0,0.0,89,-99.99,,,-99.99,VWS V14.01,2013-05-14 06:30:00,
2013-05-14 02:35:00,30.2,27.5,30.18,WNW,290,0.0,0.0,90,-99.99,,,-99.99,VWS V14.01,2013-05-14 06:35:00,
2013-05-14 02:40:00,30.1,27.5,30.18,WNW,290,0.0,0.0,90,-99.99,,,-99.99,VWS V14.01,2013-05-14 06:40:00,
2013-05-14 02:45:00,30.1,27.6,30.18,WNW,290,0.0,0.0,90,-99.99,,,-99.99,VWS V14.01,2013-05-14 06:45:00,
2013-05-14 02:50:00,29.9,27.4,30.18,WNW,290,0.0,0.0,90,-99.99,,,-99.99,VWS V14.01,2013-05-14 06:50:00,
2013-05-14 02:55:00,30.0,27.6,30.18,WNW,290,0.0,0.0,91,-99.99,,,-99.99,VWS V14.01,2013-05-14 06:55:00,
2013-05-14 03:00:00,30.0,27.6,30.18,WNW,290,0.0,0.0,91,-99.99,,,-99.99,VWS V14.01,2013-05-14 07:00:00,
2013-05-14 03:05:00,29.9,27.5,30.18,WNW,290,0.0,0.0,91,-99.99,,,-99.99,VWS V14.01,2013-05-14 07:05:00,
2013-05-14 03:10:00,29.8,27.5,30.18,WNW,290,0.0,0.0,91,-99.99,,,-99.99,VWS V14.01,2013-05-14 07:10:00,
2013-05-14 03:15:00,29.9,27.6,30.18,WNW,290,0.0,0.0,91,-99.99,,,-99.99,VWS V14.01,2013-05-14 07:15:00,
2013-05-14 03:20:00,29.8,27.5,30.18,WNW,290,0.0,0.0,91,-99.99,,,-99.99,VWS V14.01,2013-05-14 07:20:00,
2013-05-14 03:25:00,29.8,27.5,30.18,WNW,290,0.0,0.0,91,-99.99,,,-99.99,VWS V14.01,2013-05-14 07:25:00,
2013-05-14 03:30:00,29.7,27.5,30.18,WNW,290,0.0,0.0,91,-99.99,,,-99.99,VWS V14.01,2013-05-14 07:30:00,
2013-05-14 03:35:00,29.7,27.5,30.18,WNW,290,0.0,0.0,91,-99.99,,,-99.99,VWS V14.01,2013-05-14 07:35:00,
2013-05-14 03:40:00,29.6,27.4,30.18,WNW,290,0.0,0.0,91,-99.99,,,-99.99,VWS V14.01,2013-05-14 07:40:00,
2013-05-14 03:45:00,29.4,27.2,30.18,WNW,290,0.0,0.0,92,-99.99,,,-99.99,VWS V14.01,2013-05-14 07:45:00,
2013-05-14 03:50:00,29.2,27.1,30.18,WNW,290,0.0,0.0,92,-99.99,,,-99.99,VWS V14.01,2013-05-14 07:50:00,
2013-05-14 03:55:00,29.1,27.1,30.18,WNW,290,0.0,0.0,92,-99.99,,,-99.99,VWS V14.01,2013-05-14 07:55:00,
2013-05-14 04:00:00,29.0,27.0,30.18,WNW,290,0.0,0.0,92,-99.99,,,-99.99,VWS V14.01,2013-05-14 08:00:00,
2013-05-14 04:05:00,29.1,27.2,30.19,WNW,290,0.0,0.0,92,-99.99,,,-99.99,VWS V14.01,2013-05-14 08:05:00,
2013-05-14 04:10:00,29.0,27.1,30.18,WNW,290,0.0,0.0,92,-99.99,,,-99.99,VWS V14.01,2013-05-14 08:10:00,
2013-05-14 04:15:00,28.9,27.0,30.18,WNW,290,0.0,0.0,93,-99.99,,,-99.99,VWS V14.01,2013-05-14 08:15:00,
2013-05-14 04:20:00,28.9,27.1,30.18,WNW,290,0.0,0.0,93,-99.99,,,-99.99,VWS V14.01,2013-05-14 08:20:00,
2013-05-14 04:25:00,28.9,27.1,30.18,WNW,290,0.0,0.0,93,-99.99,,,-99.99,VWS V14.01,2013-05-14 08:25:00,
2013-05-14 04:30:00,28.8,27.1,30.18,WNW,290,0.0,0.0,93,-99.99,,,-99.99,VWS V14.01,2013-05-14 08:30:00,
2013-05-14 04:35:00,28.9,27.2,30.18,WNW,290,0.0,0.0,93,-99.99,,,-99.99,VWS V14.01,2013-05-14 08:35:00,
2013-05-14 04:40:00,28.6,26.9,30.18,WNW,290,0.0,0.0,93,-99.99,,,-99.99,VWS V14.01,2013-05-14 08:40:00,
2013-05-14 04:45:00,28.6,27.0,30.18,WNW,290,0.0,0.0,94,-99.99,,,-99.99,VWS V14.01,2013-05-14 08:45:00,
2013-05-14 04:50:00,28.4,26.8,30.18,WNW,290,0.0,0.0,94,-99.99,,,-99.99,VWS V14.01,2013-05-14 08:50:00,
2013-05-14 04:55:00,28.4,26.9,30.18,WNW,290,0.0,0.0,94,-99.99,,,-99.99,VWS V14.01,2013-05-14 08:55:00,
2013-05-14 05:00:00,28.3,26.8,30.18,WNW,290,0.0,0.0,94,-99.99,,,-99.99,VWS V14.01,2013-05-14 09:00:00,
2013-05-14 05:05:00,28.3,26.9,30.18,WNW,290,0.0,0.0,94,-99.99,,,-99.99,VWS V14.01,2013-05-14 09:05:00,
2013-05-14 05:10:00,28.3,26.9,30.18,WNW,290,0.0,0.0,94,-99.99,,,-99.99,VWS V14.01,2013-05-14 09:10:00,
2013-05-14 05:15:00,28.3,26.9,30.18,WNW,290,0.0,0.0,94,-99.99,,,-99.99,VWS V14.01,2013-05-14 09:15:00,
2013-05-14 05:20:00,28.2,26.8,30.18,WNW,290,0.0,0.0,94,-99.99,,,-99.99,VWS V14.01,2013-05-14 09:20:00,
2013-05-14 05:25:00,28.3,26.9,30.18,WNW,290,0.0,0.0,94,-99.99,,,-99.99,VWS V14.01,2013-05-14 09:25:00,
2013-05-14 05:30:00,28.4,27.0,30.18,WNW,290,0.0,0.0,94,-99.99,,,-99.99,VWS V14.01,2013-05-14 09:30:00,
2013-05-14 05:35:00,28.3,26.9,30.18,WNW,290,0.0,0.0,94,-99.99,,,-99.99,VWS V14.01,2013-05-14 09:35:00,
2013-05-14 05:40:00,28.4,27.0,30.18,WNW,290,0.0,0.0,94,-99.99,,,-99.99,VWS V14.01,2013-05-14 09:40:00,
2013-05-14 05:45:00,28.4,27.0,30.18,WNW,290,0.0,0.0,95,-99.99,,,-99.99,VWS V14.01,2013-05-14 09:45:00,
2013-05-14 05:50:00,28.4,27.0,30.18,WNW,290,0.0,0.0,95,-99.99,,,-99.99,VWS V14.01,2013-05-14 09:50:00,
2013-05-14 05:55:00,28.2,26.9,30.18,WNW,290,0.0,0.0,95,-99.99,,,-99.99,VWS V14.01,2013-05-14 09:55:00,
2013-05-14 06:00:00,28.3,27.0,30.18,WNW,290,0.0,0.0,95,-99.99,,,-99.99,VWS V14.01,2013-05-14 10:00:00,
2013-05-14 06:05:00,28.2,27.0,30.18,WNW,290,0.0,0.0,95,-99.99,,,-99.99,VWS V14.01,2013-05-14 10:05:00,
2013-05-14 06:10:00,28.3,27.1,30.18,WNW,290,0.0,0.0,95,-99.99,,,-99.99,VWS V14.01,2013-05-14 10:10:00,
2013-05-14 06:15:00,28.4,27.1,30.18,WNW,290,0.0,0.0,95,-99.99,,,-99.99,VWS V14.01,2013-05-14 10:15:00,
2013-05-14 06:20:00,28.3,27.0,30.18,WNW,290,0.0,0.0,95,-99.99,,,-99.99,VWS V14.01,2013-05-14 10:20:00,
2013-05-14 06:25:00,28.3,27.0,30.18,WNW,290,0.0,0.0,95,-99.99,,,-99.99,VWS V14.01,2013-05-14 10:25:00,
2013-05-14 06:30:00,28.2,27.0,30.18,WNW,290,0.0,0.0,95,-99.99,,,-99.99,VWS V14.01,2013-05-14 10:30:00,
2013-05-14 06:35:00,28.2,27.0,30.19,WNW,290,0.0,0.0,95,-99.99,,,-99.99,VWS V14.01,2013-05-14 10:35:00,
2013-05-14 06:40:00,28.2,27.0,30.18,WNW,290,0.0,0.0,95,-99.99,,,-99.99,VWS V14.01,2013-05-14 10:40:00,
2013-05-14 06:45:00,28.2,27.1,30.19,WNW,290,0.0,0.0,95,-99.99,,,-99.99,VWS V14.01,2013-05-14 10:45:00,
2013-05-14 06:50:00,28.2,27.1,30.19,WNW,290,0.0,0.0,96,-99.99,,,-99.99,VWS V14.01,2013-05-14 10:50:00,
2013-05-14 06:55:00,28.4,27.3,30.19,WNW,290,0.0,0.0,96,-99.99,,,-99.99,VWS V14.01,2013-05-14 10:55:00,
2013-05-14 07:00:00,28.9,27.9,30.19,WNW,290,0.0,0.0,96,-99.99,,,-99.99,VWS V14.01,2013-05-14 11:00:00,
2013-05-14 07:05:00,29.6,28.6,30.19,WNW,290,0.0,0.0,96,-99.99,,,-99.99,VWS V14.01,2013-05-14 11:05:00,
2013-05-14 07:10:00,30.2,29.0,30.19,WNW,290,0.0,0.0,95,-99.99,,,-99.99,VWS V14.01,2013-05-14 11:10:00,
2013-05-14 07:15:00,31.0,29.7,30.19,WNW,290,0.0,0.0,95,-99.99,,,-99.99,VWS V14.01,2013-05-14 11:15:00,
2013-05-14 07:20:00,31.7,29.7,30.20,WNW,290,0.0,0.0,92,-99.99,,,-99.99,VWS V14.01,2013-05-14 11:20:00,
2013-05-14 07:25:00,32.2,29.5,30.20,WNW,290,0.0,0.0,90,-99.99,,,-99.99,VWS V14.01,2013-05-14 11:25:00,
2013-05-14 07:30:00,32.1,29.2,30.20,WNW,290,0.0,0.0,89,-99.99,,,-99.99,VWS V14.01,2013-05-14 11:30:00,
2013-05-14 07:35:00,32.1,29.3,30.20,WNW,290,0.0,0.0,89,-99.99,,,-99.99,VWS V14.01,2013-05-14 11:35:00,
2013-05-14 07:40:00,32.4,29.3,30.20,WNW,290,0.0,0.0,88,-99.99,,,-99.99,VWS V14.01,2013-05-14 11:40:00,
2013-05-14 07:45:00,32.3,28.9,30.20,WNW,290,0.0,0.0,87,-99.99,,,-99.99,VWS V14.01,2013-05-14 11:45:00,
2013-05-14 07:50:00,32.2,28.8,30.20,WNW,290,0.0,0.0,87,-99.99,,,-99.99,VWS V14.01,2013-05-14 11:50:00,
2013-05-14 07:54:00,32.4,29.0,30.20,WNW,290,0.0,0.0,87,-99.99,,,-99.99,VWS V14.01,2013-05-14 11:54:00,
2013-05-14 07:59:00,33.2,29.7,30.20,WNW,290,0.0,0.0,87,-99.99,,,-99.99,VWS V14.01,2013-05-14 11:59:00,
2013-05-14 08:04:00,34.0,29.7,30.20,WNW,290,0.0,0.0,84,-99.99,,,-99.99,VWS V14.01,2013-05-14 12:04:00,
2013-05-14 08:09:00,34.6,29.7,30.21,WNW,290,0.0,0.0,82,-99.99,,,-99.99,VWS V14.01,2013-05-14 12:09:00,
2013-05-14 08:14:00,34.9,29.5,30.21,WNW,290,0.0,0.0,80,-99.99,,,-99.99,VWS V14.01,2013-05-14 12:14:00,
2013-05-14 08:19:00,35.5,29.9,30.20,WNW,290,0.0,0.0,80,-99.99,,,-99.99,VWS V14.01,2013-05-14 12:19:00,
2013-05-14 08:24:00,36.1,29.7,30.20,WNW,290,0.0,0.0,77,-99.99,,,-99.99,VWS V14.01,2013-05-14 12:24:00,
2013-05-14 08:29:00,36.4,29.6,30.20,WNW,290,0.0,0.0,76,-99.99,,,-99.99,VWS V14.01,2013-05-14 12:29:00,
2013-05-14 08:34:00,37.2,30.0,30.20,WNW,290,0.0,0.0,75,-99.99,,,-99.99,VWS V14.01,2013-05-14 12:34:00,
2013-05-14 08:39:00,37.7,29.5,30.20,WNW,290,0.0,0.0,72,-99.99,,,-99.99,VWS V14.01,2013-05-14 12:39:00,
2013-05-14 08:44:00,38.0,29.6,30.20,East,94,0.0,0.0,71,-99.99,,,-99.99,VWS V14.01,2013-05-14 12:44:00,
2013-05-14 08:49:00,38.1,29.5,30.20,East,94,0.0,0.0,71,-99.99,,,-99.99,VWS V14.01,2013-05-14 12:49:00,
2013-05-14 08:54:00,38.1,29.6,30.20,East,94,0.0,0.0,71,-99.99,,,-99.99,VWS V14.01,2013-05-14 12:54:00,
2013-05-14 08:59:00,38.1,29.5,30.20,East,94,0.0,0.0,71,-99.99,,,-99.99,VWS V14.01,2013-05-14 12:59:00,
2013-05-14 09:04:00,38.2,29.7,30.20,East,94,0.0,0.0,71,-99.99,,,-99.99,VWS V14.01,2013-05-14 13:04:00,
2013-05-14 09:09:00,38.3,29.5,30.20,East,94,0.0,0.0,70,-99.99,,,-99.99,VWS V14.01,2013-05-14 13:09:00,
2013-05-14 09:14:00,38.8,30.0,30.20,East,94,0.0,0.0,70,-99.99,,,-99.99,VWS V14.01,2013-05-14 13:14:00,
2013-05-14 09:19:00,39.5,30.1,30.20,East,94,0.0,0.0,69,-99.99,,,-99.99,VWS V14.01,2013-05-14 13:19:00,
2013-05-14 09:24:00,40.6,30.3,30.19,East,94,0.0,0.0,66,-99.99,,,-99.99,VWS V14.01,2013-05-14 13:24:00,
2013-05-14 09:29:00,41.8,30.8,30.19,East,94,0.0,0.0,65,-99.99,,,-99.99,VWS V14.01,2013-05-14 13:29:00,
2013-05-14 09:34:00,42.6,30.9,30.19,East,94,0.0,0.0,63,-99.99,,,-99.99,VWS V14.01,2013-05-14 13:34:00,
2013-05-14 09:39:00,43.0,30.7,30.18,East,94,0.0,0.0,62,-99.99,,,-99.99,VWS V14.01,2013-05-14 13:39:00,
2013-05-14 09:44:00,43.1,30.3,30.18,East,94,0.0,0.0,60,-99.99,,,-99.99,VWS V14.01,2013-05-14 13:44:00,
2013-05-14 09:49:00,43.4,30.5,30.18,East,94,0.0,0.0,60,-99.99,,,-99.99,VWS V14.01,2013-05-14 13:49:00,
2013-05-14 09:54:00,43.7,30.7,30.19,East,94,0.0,0.0,60,-99.99,,,-99.99,VWS V14.01,2013-05-14 13:54:00,
2013-05-14 09:59:00,44.1,30.7,30.18,East,94,0.0,0.0,59,-99.99,,,-99.99,VWS V14.01,2013-05-14 13:59:00,
2013-05-14 10:04:00,44.3,30.6,30.18,East,94,0.0,0.0,58,-99.99,,,-99.99,VWS V14.01,2013-05-14 14:04:00,
2013-05-14 10:09:00,44.7,30.7,30.17,SE,145,0.0,0.0,58,-99.99,,,-99.99,VWS V14.01,2013-05-14 14:09:00,
2013-05-14 10:14:00,44.9,30.1,30.17,SE,145,0.0,0.0,56,-99.99,,,-99.99,VWS V14.01,2013-05-14 14:14:00,
2013-05-14 10:19:00,45.0,30.2,30.17,SE,145,0.0,0.0,56,-99.99,,,-99.99,VWS V14.01,2013-05-14 14:19:00,
2013-05-14 10:24:00,45.5,30.4,30.16,SE,125,0.0,3.2,55,-99.99,,,-99.99,VWS V14.01,2013-05-14 14:24:00,
2013-05-14 10:29:00,46.1,30.2,30.15,SSE,152,0.0,0.0,54,-99.99,,,-99.99,VWS V14.01,2013-05-14 14:29:00,
2013-05-14 10:34:00,47.1,29.3,30.15,SE,125,0.0,0.0,50,-99.99,,,-99.99,VWS V14.01,2013-05-14 14:34:00,
2013-05-14 10:39:00,47.9,29.7,30.16,East,93,0.0,0.0,49,-99.99,,,-99.99,VWS V14.01,2013-05-14 14:39:00,
2013-05-14 10:44:00,48.6,30.1,30.15,East,91,0.0,4.7,48,-99.99,,,-99.99,VWS V14.01,2013-05-14 14:44:00,
2013-05-14 10:49:00,49.0,29.2,30.15,East,91,0.0,0.0,46,-99.99,,,-99.99,VWS V14.01,2013-05-14 14:49:00,
2013-05-14 10:54:00,49.4,30.5,30.15,ESE,120,0.0,4.3,48,-99.99,,,-99.99,VWS V14.01,2013-05-14 14:54:00,
2013-05-14 10:59:00,49.9,29.7,30.14,ESE,120,0.0,0.0,46,-99.99,,,-99.99,VWS V14.01,2013-05-14 14:59:00,
2013-05-14 11:04:00,50.0,29.4,30.14,East,101,0.0,0.0,45,-99.99,,,-99.99,VWS V14.01,2013-05-14 15:04:00,
2013-05-14 11:09:00,50.6,28.7,30.14,NNW,335,3.5,8.8,43,-99.99,,,-99.99,VWS V14.01,2013-05-14 15:09:00,
2013-05-14 11:14:00,51.4,28.9,30.14,NW,308,7.6,8.4,42,-99.99,,,-99.99,VWS V14.01,2013-05-14 15:14:00,
2013-05-14 11:19:00,51.7,29.2,30.13,NW,323,0.0,0.0,42,-99.99,,,-99.99,VWS V14.01,2013-05-14 15:19:00,
2013-05-14 11:24:00,52.0,29.3,30.13,NW,308,3.4,12.9,42,-99.99,,,-99.99,VWS V14.01,2013-05-14 15:24:00,
2013-05-14 11:29:00,52.1,29.7,30.13,NNW,339,0.0,2.9,42,-99.99,,,-99.99,VWS V14.01,2013-05-14 15:29:00,
2013-05-14 11:34:00,52.2,30.0,30.13,NNW,339,0.0,0.0,42,-99.99,,,-99.99,VWS V14.01,2013-05-14 15:34:00,
2013-05-14 11:39:00,52.1,29.5,30.12,North,359,0.0,10.6,42,-99.99,,,-99.99,VWS V14.01,2013-05-14 15:39:00,
2013-05-14 11:46:00,53.2,31.3,30.12,WSW,256,6.9,6.9,43,-99.99,,,-99.99,VWS V14.01,2013-05-14 15:46:00,
2013-05-14 11:51:00,53.5,31.7,30.12,NW,316,0.0,0.0,43,-99.99,,,-99.99,VWS V14.01,2013-05-14 15:51:00,
2013-05-14 11:56:00,54.0,31.1,30.12,NW,316,0.0,0.0,42,-99.99,,,-99.99,VWS V14.01,2013-05-14 15:56:00,
2013-05-14 12:01:00,54.1,32.0,30.11,NW,315,0.0,0.0,43,-99.99,,,-99.99,VWS V14.01,2013-05-14 16:01:00,
2013-05-14 12:06:00,54.6,32.2,30.11,WNW,291,0.0,5.5,42,-99.99,,,-99.99,VWS V14.01,2013-05-14 16:06:00,
2013-05-14 12:11:00,54.9,31.5,30.12,WNW,291,5.7,5.7,41,-99.99,,,-99.99,VWS V14.01,2013-05-14 16:11:00,
2013-05-14 12:16:00,55.2,31.3,30.12,SW,226,0.0,0.0,40,-99.99,,,-99.99,VWS V14.01,2013-05-14 16:16:00,
2013-05-14 12:21:00,55.2,31.6,30.11,NNE,20,0.0,0.0,40,-99.99,,,-99.99,VWS V14.01,2013-05-14 16:21:00,
2013-05-14 12:26:00,55.4,31.1,30.10,North,359,0.0,0.0,39,-99.99,,,-99.99,VWS V14.01,2013-05-14 16:26:00,
2013-05-14 12:31:00,55.6,30.9,30.10,WSW,238,0.0,0.0,39,-99.99,,,-99.99,VWS V14.01,2013-05-14 16:31:00,
2013-05-14 12:36:00,55.8,30.7,30.10,NW,308,5.4,8.0,38,-99.99,,,-99.99,VWS V14.01,2013-05-14 16:36:00,
2013-05-14 12:41:00,56.3,30.0,30.10,NW,305,11.8,11.8,36,-99.99,,,-99.99,VWS V14.01,2013-05-14 16:41:00,
2013-05-14 12:46:00,56.7,30.6,30.10,West,278,0.0,0.0,37,-99.99,,,-99.99,VWS V14.01,2013-05-14 16:46:00,
2013-05-14 12:51:00,57.2,30.2,30.10,West,262,0.0,3.4,36,-99.99,,,-99.99,VWS V14.01,2013-05-14 16:51:00,
2013-05-14 12:55:00,57.8,30.4,30.10,SSE,165,0.0,0.0,35,-99.99,,,-99.99,VWS V14.01,2013-05-14 16:55:00,
2013-05-14 13:00:00,58.0,29.7,30.10,West,276,3.2,3.2,34,-99.99,,,-99.99,VWS V14.01,2013-05-14 17:00:00,
2013-05-14 13:05:00,57.8,30.6,30.10,NW,318,0.0,0.0,35,-99.99,,,-99.99,VWS V14.01,2013-05-14 17:05:00,
2013-05-14 13:10:00,57.5,30.1,30.10,NNW,339,6.3,6.3,35,-99.99,,,-99.99,VWS V14.01,2013-05-14 17:10:00,
2013-05-14 13:15:00,57.3,29.6,30.10,WSW,246,0.0,0.0,35,-99.99,,,-99.99,VWS V14.01,2013-05-14 17:15:00,
2013-05-14 13:20:00,57.1,29.2,30.10,NE,34,0.0,3.2,34,-99.99,,,-99.99,VWS V14.01,2013-05-14 17:20:00,
2013-05-14 13:25:00,56.7,29.3,30.10,WSW,255,0.0,0.0,35,-99.99,,,-99.99,VWS V14.01,2013-05-14 17:25:00,
2013-05-14 13:30:00,56.4,29.0,30.09,NW,304,0.0,0.0,35,-99.99,,,-99.99,VWS V14.01,2013-05-14 17:30:00,
2013-05-14 13:35:00,56.0,28.9,30.09,NW,304,0.0,0.0,35,-99.99,,,-99.99,VWS V14.01,2013-05-14 17:35:00,
2013-05-14 13:40:00,55.9,29.1,30.09,NW,304,0.0,0.0,36,-99.99,,,-99.99,VWS V14.01,2013-05-14 17:40:00,
2013-05-14 13:45:00,55.8,29.4,30.09,SW,235,0.0,0.0,36,-99.99,,,-99.99,VWS V14.01,2013-05-14 17:45:00,
2013-05-14 13:50:00,55.7,29.0,30.09,NW,323,0.0,0.0,36,-99.99,,,-99.99,VWS V14.01,2013-05-14 17:50:00,
2013-05-14 13:58:00,55.4,29.0,30.10,WSW,256,0.0,0.0,36,-99.99,,,-99.99,VWS V14.01,2013-05-14 17:58:00,
2013-05-14 14:03:00,55.2,30.1,30.10,WSW,256,1.4,4.9,38,-99.99,,,-99.99,VWS V14.01,2013-05-14 18:03:00,
2013-05-14 14:08:00,55.1,30.3,30.10,WSW,256,0.0,0.0,38,-99.99,,,-99.99,VWS V14.01,2013-05-14 18:08:00,
2013-05-14 14:13:00,54.9,30.0,30.10,West,276,0.0,0.0,38,-99.99,,,-99.99,VWS V14.01,2013-05-14 18:13:00,
2013-05-14 14:18:00,54.9,30.4,30.10,West,276,0.0,0.0,39,-99.99,,,-99.99,VWS V14.01,2013-05-14 18:18:00,
2013-05-14 14:23:00,54.8,29.8,30.10,West,276,0.0,0.0,38,-99.99,,,-99.99,VWS V14.01,2013-05-14 18:23:00,
2013-05-14 14:28:00,54.6,30.7,30.10,West,276,0.0,0.0,40,-99.99,,,-99.99,VWS V14.01,2013-05-14 18:28:00,
2013-05-14 14:33:00,54.6,30.5,30.10,West,276,0.0,0.0,40,-99.99,,,-99.99,VWS V14.01,2013-05-14 18:33:00,
2013-05-14 14:37:00,54.7,30.9,30.11,NW,305,0.0,0.0,40,-99.99,,,-99.99,VWS V14.01,2013-05-14 18:37:00,
2013-05-14 14:42:00,54.7,30.1,30.10,NW,305,0.0,0.0,39,-99.99,,,-99.99,VWS V14.01,2013-05-14 18:42:00,
2013-05-14 14:47:00,54.8,31.2,30.11,NW,305,0.0,0.0,40,-99.99,,,-99.99,VWS V14.01,2013-05-14 18:47:00,
2013-05-14 14:52:00,54.5,30.0,30.10,NW,305,0.0,0.0,39,-99.99,,,-99.99,VWS V14.01,2013-05-14 18:52:00,
2013-05-14 14:57:00,54.4,29.9,30.10,NW,305,0.0,0.0,39,-99.99,,,-99.99,VWS V14.01,2013-05-14 18:57:00,
2013-05-14 15:02:00,54.4,30.0,30.10,NW,305,0.0,0.0,39,-99.99,,,-99.99,VWS V14.01,2013-05-14 19:02:00,
2013-05-14 15:07:00,54.4,30.0,30.09,NW,305,0.0,0.0,39,-99.99,,,-99.99,VWS V14.01,2013-05-14 19:07:00,
2013-05-14 15:12:00,54.4,30.1,30.09,NW,305,0.0,0.0,39,-99.99,,,-99.99,VWS V14.01,2013-05-14 19:12:00,
2013-05-14 15:17:00,54.6,30.6,30.09,NW,305,0.0,0.0,40,-99.99,,,-99.99,VWS V14.01,2013-05-14 19:17:00,
2013-05-14 15:22:00,54.7,30.2,30.09,NW,305,0.0,0.0,39,-99.99,,,-99.99,VWS V14.01,2013-05-14 19:22:00,
2013-05-14 15:27:00,54.8,30.3,30.08,NW,305,0.0,0.0,39,-99.99,,,-99.99,VWS V14.01,2013-05-14 19:27:00,
2013-05-14 15:32:00,54.8,30.3,30.08,NW,305,0.0,0.0,39,-99.99,,,-99.99,VWS V14.01,2013-05-14 19:32:00,
2013-05-14 15:37:00,54.9,30.9,30.08,NW,305,0.0,0.0,40,-99.99,,,-99.99,VWS V14.01,2013-05-14 19:37:00,
2013-05-14 15:42:00,55.1,30.9,30.08,NW,305,0.0,0.0,40,-99.99,,,-99.99,VWS V14.01,2013-05-14 19:42:00,
2013-05-14 15:47:00,55.3,30.3,30.07,ESE,121,0.0,0.0,38,-99.99,,,-99.99,VWS V14.01,2013-05-14 19:47:00,
2013-05-14 15:52:00,55.2,30.3,30.07,ESE,121,0.0,0.0,38,-99.99,,,-99.99,VWS V14.01,2013-05-14 19:52:00,
2013-05-14 15:57:00,55.2,30.6,30.06,ESE,121,0.0,0.0,39,-99.99,,,-99.99,VWS V14.01,2013-05-14 19:57:00,
2013-05-14 16:02:00,55.1,30.2,30.06,ESE,121,0.0,0.0,38,-99.99,,,-99.99,VWS V14.01,2013-05-14 20:02:00,
2013-05-14 16:07:00,55.0,30.5,30.06,ESE,121,0.0,0.0,39,-99.99,,,-99.99,VWS V14.01,2013-05-14 20:07:00,
2013-05-14 16:12:00,54.9,30.4,30.06,ESE,121,0.0,0.0,39,-99.99,,,-99.99,VWS V14.01,2013-05-14 20:12:00,
2013-05-14 16:17:00,54.9,30.6,30.06,ESE,121,0.0,0.0,39,-99.99,,,-99.99,VWS V14.01,2013-05-14 20:17:00,
2013-05-14 16:22:00,54.9,30.5,30.06,ESE,121,0.0,0.0,39,-99.99,,,-99.99,VWS V14.01,2013-05-14 20:22:00,
2013-05-14 16:27:00,54.8,30.6,30.06,ESE,121,0.0,0.0,39,-99.99,,,-99.99,VWS V14.01,2013-05-14 20:27:00,
2013-05-14 16:32:00,54.8,30.6,30.06,ESE,121,0.0,0.0,40,-99.99,,,-99.99,VWS V14.01,2013-05-14 20:32:00,
2013-05-14 16:37:00,54.8,31.5,30.06,ESE,121,0.0,0.0,41,-99.99,,,-99.99,VWS V14.01,2013-05-14 20:37:00,
2013-05-14 16:42:00,54.7,31.7,30.05,ESE,121,0.0,0.0,41,-99.99,,,-99.99,VWS V14.01,2013-05-14 20:42:00,
2013-05-14 16:47:00,54.6,32.6,30.05,ESE,121,0.0,0.0,43,-99.99,,,-99.99,VWS V14.01,2013-05-14 20:47:00,
2013-05-14 16:52:00,54.5,31.7,30.05,ESE,121,0.0,0.0,42,-99.99,,,-99.99,VWS V14.01,2013-05-14 20:52:00,
2013-05-14 16:57:00,54.6,33.9,30.05,ESE,121,0.0,0.0,45,-99.99,,,-99.99,VWS V14.01,2013-05-14 20:57:00,
2013-05-14 17:02:00,54.4,33.3,30.05,ESE,121,0.0,0.0,45,-99.99,,,-99.99,VWS V14.01,2013-05-14 21:02:00,
2013-05-14 17:07:00,54.2,33.6,30.05,ESE,121,0.0,0.0,45,-99.99,,,-99.99,VWS V14.01,2013-05-14 21:07:00,
2013-05-14 17:12:00,54.1,34.0,30.04,ESE,121,0.0,0.0,46,-99.99,,,-99.99,VWS V14.01,2013-05-14 21:12:00,
2013-05-14 17:17:00,54.1,34.0,30.04,ESE,121,0.0,0.0,46,-99.99,,,-99.99,VWS V14.01,2013-05-14 21:17:00,
2013-05-14 17:22:00,53.9,33.5,30.04,ESE,121,0.0,0.0,46,-99.99,,,-99.99,VWS V14.01,2013-05-14 21:22:00,
2013-05-14 17:27:00,53.9,33.7,30.04,ESE,121,0.0,0.0,46,-99.99,,,-99.99,VWS V14.01,2013-05-14 21:27:00,
2013-05-14 17:32:00,53.9,33.8,30.03,ESE,121,0.0,0.0,46,-99.99,,,-99.99,VWS V14.01,2013-05-14 21:32:00,
2013-05-14 17:37:00,54.0,34.5,30.03,ESE,121,0.0,0.0,47,-99.99,,,-99.99,VWS V14.01,2013-05-14 21:37:00,
2013-05-14 17:42:00,53.9,35.5,30.03,ESE,121,0.0,0.0,50,-99.99,,,-99.99,VWS V14.01,2013-05-14 21:42:00,
2013-05-14 17:47:00,53.8,37.9,30.03,ESE,121,0.0,0.0,55,-99.99,,,-99.99,VWS V14.01,2013-05-14 21:47:00,
2013-05-14 17:52:00,53.5,38.6,30.03,ESE,121,0.0,0.0,57,-99.99,,,-99.99,VWS V14.01,2013-05-14 21:52:00,
2013-05-14 17:57:00,53.1,41.7,30.02,ESE,121,0.0,0.0,65,-99.99,,,-99.99,VWS V14.01,2013-05-14 21:57:00,
2013-05-14 18:02:00,52.8,41.7,30.02,ESE,121,0.0,0.0,66,-99.99,,,-99.99,VWS V14.01,2013-05-14 22:02:00,
2013-05-14 18:07:00,52.3,41.0,30.01,ESE,121,0.0,0.0,65,-99.99,,,-99.99,VWS V14.01,2013-05-14 22:07:00,
2013-05-14 18:12:00,52.0,41.6,30.02,ESE,121,0.0,0.0,68,-99.99,,,-99.99,VWS V14.01,2013-05-14 22:12:00,
2013-05-14 18:17:00,51.4,41.7,30.02,ESE,121,0.0,0.0,69,-99.99,,,-99.99,VWS V14.01,2013-05-14 22:17:00,
2013-05-14 18:22:00,51.1,42.3,30.02,ESE,121,0.0,0.0,72,-99.99,,,-99.99,VWS V14.01,2013-05-14 22:22:00,
2013-05-14 18:27:00,51.0,42.6,30.01,ESE,121,0.0,0.0,73,-99.99,,,-99.99,VWS V14.01,2013-05-14 22:27:00,
2013-05-14 18:32:00,50.7,42.7,30.01,ESE,121,0.0,0.0,74,-99.99,,,-99.99,VWS V14.01,2013-05-14 22:32:00,
2013-05-14 18:37:00,50.5,43.1,30.01,ESE,121,0.0,0.0,76,-99.99,,,-99.99,VWS V14.01,2013-05-14 22:37:00,
2013-05-14 18:42:00,50.3,43.5,30.01,ESE,121,0.0,0.0,77,-99.99,,,-99.99,VWS V14.01,2013-05-14 22:42:00,
2013-05-14 18:47:00,50.1,43.7,30.00,ESE,121,0.0,0.0,78,-99.99,,,-99.99,VWS V14.01,2013-05-14 22:47:00,
2013-05-14 18:52:00,50.0,43.4,30.00,ESE,121,0.0,0.0,78,-99.99,,,-99.99,VWS V14.01,2013-05-14 22:52:00,
2013-05-14 18:57:00,49.9,43.5,30.00,ESE,121,0.0,0.0,78,-99.99,,,-99.99,VWS V14.01,2013-05-14 22:57:00,
2013-05-14 19:02:00,49.8,43.6,30.00,ESE,121,0.0,0.0,79,-99.99,,,-99.99,VWS V14.01,2013-05-14 23:02:00,
2013-05-14 19:07:00,49.6,43.6,30.00,ESE,121,0.0,0.0,80,-99.99,,,-99.99,VWS V14.01,2013-05-14 23:07:00,
2013-05-14 19:12:00,49.7,43.9,30.00,ESE,121,0.0,0.0,80,-99.99,,,-99.99,VWS V14.01,2013-05-14 23:12:00,
2013-05-14 19:17:00,49.7,44.0,30.00,ESE,121,0.0,0.0,80,-99.99,,,-99.99,VWS V14.01,2013-05-14 23:17:00,
2013-05-14 19:22:00,49.7,44.3,30.00,ESE,121,0.0,0.0,82,-99.99,,,-99.99,VWS V14.01,2013-05-14 23:22:00,
2013-05-14 19:27:00,49.8,44.7,30.01,ESE,121,0.0,0.0,82,-99.99,,,-99.99,VWS V14.01,2013-05-14 23:27:00,
2013-05-14 19:32:00,49.4,44.1,30.01,ESE,121,0.0,0.0,82,-99.99,,,-99.99,VWS V14.01,2013-05-14 23:32:00,
2013-05-14 19:37:00,49.0,44.1,30.01,ESE,121,0.0,0.0,83,-99.99,,,-99.99,VWS V14.01,2013-05-14 23:37:00,
2013-05-14 19:42:00,48.9,44.3,30.01,ESE,121,0.0,0.0,84,-99.99,,,-99.99,VWS V14.01,2013-05-14 23:42:00,
2013-05-14 19:47:00,48.7,44.7,30.01,ESE,121,0.0,0.0,86,-99.99,,,-99.99,VWS V14.01,2013-05-14 23:47:00,
2013-05-14 19:52:00,48.3,44.6,30.01,ESE,121,0.0,0.0,87,-99.99,,,-99.99,VWS V14.01,2013-05-14 23:52:00,
2013-05-14 19:57:00,47.9,44.2,30.02,ESE,121,0.0,0.0,87,-99.99,,,-99.99,VWS V14.01,2013-05-14 23:57:00,
2013-05-14 20:02:00,47.7,44.7,30.02,ESE,121,0.0,0.0,89,-99.99,,,-99.99,VWS V14.01,2013-05-15 00:02:00,
2013-05-14 20:07:00,47.6,44.6,30.02,ESE,121,0.0,0.0,89,-99.99,,,-99.99,VWS V14.01,2013-05-15 00:07:00,
2013-05-14 20:12:00,47.3,44.5,30.02,ESE,121,0.0,0.0,90,-99.99,,,-99.99,VWS V14.01,2013-05-15 00:12:00,
2013-05-14 20:17:00,47.2,44.5,30.02,ESE,121,0.0,0.0,90,-99.99,,,-99.99,VWS V14.01,2013-05-15 00:17:00,
2013-05-14 20:22:00,47.0,44.4,30.02,ESE,121,0.0,0.0,91,-99.99,,,-99.99,VWS V14.01,2013-05-15 00:22:00,
2013-05-14 20:27:00,46.9,44.5,30.02,ESE,121,0.0,0.0,91,-99.99,,,-99.99,VWS V14.01,2013-05-15 00:27:00,
2013-05-14 20:32:00,46.8,44.5,30.02,ESE,121,0.0,0.0,92,-99.99,,,-99.99,VWS V14.01,2013-05-15 00:32:00,
2013-05-14 20:37:00,46.7,44.6,30.02,ESE,121,0.0,0.0,92,-99.99,,,-99.99,VWS V14.01,2013-05-15 00:37:00,
2013-05-14 20:42:00,46.7,44.7,30.02,ESE,121,0.0,0.0,93,-99.99,,,-99.99,VWS V14.01,2013-05-15 00:42:00,
2013-05-14 20:47:00,46.6,44.6,30.02,ESE,121,0.0,0.0,93,-99.99,,,-99.99,VWS V14.01,2013-05-15 00:47:00,
2013-05-14 20:52:00,46.7,44.8,30.03,ESE,121,0.0,0.0,93,-99.99,,,-99.99,VWS V14.01,2013-05-15 00:52:00,
2013-05-14 20:57:00,46.4,44.3,30.03,ESE,121,0.0,0.0,92,-99.99,,,-99.99,VWS V14.01,2013-05-15 00:57:00,
2013-05-14 21:02:00,46.2,44.3,30.03,ESE,121,0.0,0.0,93,-99.99,,,-99.99,VWS V14.01,2013-05-15 01:02:00,
2013-05-14 21:07:00,46.1,44.4,30.02,ESE,121,0.0,0.0,94,-99.99,,,-99.99,VWS V14.01,2013-05-15 01:07:00,
2013-05-14 21:12:00,45.8,44.2,30.02,ESE,121,0.0,0.0,94,-99.99,,,-99.99,VWS V14.01,2013-05-15 01:12:00,
2013-05-14 21:17:00,45.8,44.2,30.02,ESE,121,0.0,0.0,94,-99.99,,,-99.99,VWS V14.01,2013-05-15 01:17:00,
2013-05-14 21:21:00,46.0,44.4,30.02,ESE,121,0.0,0.0,94,-99.99,,,-99.99,VWS V14.01,2013-05-15 01:21:00,
2013-05-14 21:26:00,46.2,44.8,30.02,ESE,121,0.0,0.0,95,-99.99,,,-99.99,VWS V14.01,2013-05-15 01:26:00,
2013-05-14 21:31:00,46.2,44.8,30.02,ESE,121,0.0,0.0,95,-99.99,,,-99.99,VWS V14.01,2013-05-15 01:31:00,
2013-05-14 21:36:00,46.3,45.0,30.02,ESE,121,0.0,0.0,95,-99.99,,,-99.99,VWS V14.01,2013-05-15 01:36:00,
2013-05-14 21:41:00,46.4,45.0,30.02,ESE,121,0.0,0.0,95,-99.99,,,-99.99,VWS V14.01,2013-05-15 01:41:00,
2013-05-14 21:46:00,46.5,45.1,30.02,ESE,121,0.0,0.0,95,-99.99,,,-99.99,VWS V14.01,2013-05-15 01:46:00,
2013-05-14 21:51:00,46.5,45.1,30.02,ESE,121,0.0,0.0,95,-99.99,,,-99.99,VWS V14.01,2013-05-15 01:51:00,
2013-05-14 21:56:00,46.5,45.2,30.02,ESE,121,0.0,0.0,95,-99.99,,,-99.99,VWS V14.01,2013-05-15 01:56:00,
2013-05-14 22:01:00,46.5,45.3,30.02,ESE,121,0.0,0.0,95,-99.99,,,-99.99,VWS V14.01,2013-05-15 02:01:00,
2013-05-14 22:06:00,46.6,45.4,30.02,ESE,121,0.0,0.0,96,-99.99,,,-99.99,VWS V14.01,2013-05-15 02:06:00,
2013-05-14 22:11:00,46.6,45.4,30.02,ESE,121,0.0,0.0,96,-99.99,,,-99.99,VWS V14.01,2013-05-15 02:11:00,
2013-05-14 22:16:00,46.5,45.4,30.02,ESE,121,0.0,0.0,96,-99.99,,,-99.99,VWS V14.01,2013-05-15 02:16:00,
2013-05-14 22:21:00,46.5,45.4,30.02,ESE,121,0.0,0.0,96,-99.99,,,-99.99,VWS V14.01,2013-05-15 02:21:00,
2013-05-14 22:26:00,46.6,45.4,30.02,ESE,121,0.0,0.0,96,-99.99,,,-99.99,VWS V14.01,2013-05-15 02:26:00,
2013-05-14 22:31:00,46.5,45.3,30.02,ESE,121,0.0,0.0,96,-99.99,,,-99.99,VWS V14.01,2013-05-15 02:31:00,
2013-05-14 22:36:00,46.4,45.2,30.01,ESE,121,0.0,0.0,96,-99.99,,,-99.99,VWS V14.01,2013-05-15 02:36:00,
2013-05-14 22:41:00,46.5,45.3,30.01,ESE,121,0.0,0.0,96,-99.99,,,-99.99,VWS V14.01,2013-05-15 02:41:00,
2013-05-14 22:46:00,46.5,45.3,30.01,ESE,121,0.0,0.0,96,-99.99,,,-99.99,VWS V14.01,2013-05-15 02:46:00,
2013-05-14 22:51:00,46.5,45.4,30.00,ESE,121,0.0,0.0,96,-99.99,,,-99.99,VWS V14.01,2013-05-15 02:51:00,
2013-05-14 22:56:00,46.5,45.3,30.00,ESE,121,0.0,0.0,96,-99.99,,,-99.99,VWS V14.01,2013-05-15 02:56:00,